Time;durP1;ratioP1;P1;durP2;ratioP2;P2;SDS_P1;SDS_P2;PMS_P1;PMS_P2;Temp;Humidity;BMP_temperature;BMP_pressure;BME280_temperature;BME280_humidity;BME280_pressure;Samples;Min_cycle;Max_cycle;Signal;HPM_P1;HPM_P2
2022/03/11 00:00:47;;;;;;;9.98;5.40;;;;;;;;;;5013724;28;20045;-70
2022/03/11 00:03:16;;;;;;;5.85;4.07;;;;;;;;;;5014620;28;20052;-69
2022/03/11 00:05:43;;;;;;;7.47;5.40;;;;;;;;;;5012320;28;21032;-69
2022/03/11 00:08:11;;;;;;;8.80;5.28;;;;;;;;;;5013844;28;20132;-70
2022/03/11 00:10:39;;;;;;;10.52;5.20;;;;;;;;;;5015048;28;20045;-69
2022/03/11 00:13:07;;;;;;;6.07;4.47;;;;;;;;;;5013731;28;20680;-69
2022/03/11 00:15:34;;;;;;;8.52;5.13;;;;;;;;;;5013077;28;20046;-71
2022/03/11 00:18:02;;;;;;;6.35;4.72;;;;;;;;;;5015020;28;20160;-71
2022/03/11 00:20:31;;;;;;;7.45;5.53;;;;;;;;;;4995500;28;20049;-69
2022/03/11 00:22:59;;;;;;;6.97;5.60;;;;;;;;;;5013385;28;20237;-69
2022/03/11 00:25:27;;;;;;;8.50;6.22;;;;;;;;;;5011988;28;20053;-68
2022/03/11 00:27:54;;;;;;;6.90;5.20;;;;;;;;;;4996372;28;20045;-69
2022/03/11 00:30:21;;;;;;;8.57;5.82;;;;;;;;;;4996436;28;20037;-68
2022/03/11 00:32:49;;;;;;;7.22;5.65;;;;;;;;;;5014655;28;20566;-68
2022/03/11 00:35:16;;;;;;;9.50;6.13;;;;;;;;;;5013730;28;20046;-69
2022/03/11 00:37:43;;;;;;;9.02;5.43;;;;;;;;;;5014102;28;20637;-69
2022/03/11 00:40:14;;;;;;;9.35;5.10;;;;;;;;;;4993859;28;20045;-71
2022/03/11 00:42:41;;;;;;;8.65;5.68;;;;;;;;;;5014640;28;20075;-71
2022/03/11 00:45:09;;;;;;;7.57;4.85;;;;;;;;;;5013384;28;20060;-69
2022/03/11 00:47:36;;;;;;;5.72;4.50;;;;;;;;;;5015567;28;20152;-67
2022/03/11 00:50:04;;;;;;;9.70;5.20;;;;;;;;;;5033924;28;20040;-68
2022/03/11 00:52:32;;;;;;;9.02;5.05;;;;;;;;;;5006402;28;20044;-69
2022/03/11 00:54:59;;;;;;;6.68;4.82;;;;;;;;;;5029233;28;20033;-70
2022/03/11 00:57:27;;;;;;;6.68;5.30;;;;;;;;;;5033973;28;20782;-70
2022/03/11 00:59:54;;;;;;;5.38;4.13;;;;;;;;;;5039991;28;20111;-71
2022/03/11 01:02:21;;;;;;;5.38;4.70;;;;;;;;;;5010251;28;20099;-69
2022/03/11 01:04:49;;;;;;;5.60;4.43;;;;;;;;;;5026824;28;20459;-71
2022/03/11 01:07:17;;;;;;;9.23;4.20;;;;;;;;;;5011624;28;20462;-72
2022/03/11 01:09:44;;;;;;;8.00;4.28;;;;;;;;;;5034139;28;20133;-68
2022/03/11 01:12:12;;;;;;;6.43;4.22;;;;;;;;;;5027377;28;20513;-69
2022/03/11 01:14:39;;;;;;;6.85;4.40;;;;;;;;;;5026814;28;20045;-68
2022/03/11 01:17:07;;;;;;;7.28;4.47;;;;;;;;;;5027621;28;20041;-69
2022/03/11 01:19:34;;;;;;;6.32;4.40;;;;;;;;;;5047420;28;20755;-69
2022/03/11 01:22:04;;;;;;;4.20;3.15;;;;;;;;;;5047406;28;20049;-68
2022/03/11 01:24:32;;;;;;;7.55;4.50;;;;;;;;;;5046829;28;20045;-68
2022/03/11 01:26:59;;;;;;;5.78;4.45;;;;;;;;;;5047176;28;20421;-71
2022/03/11 01:29:27;;;;;;;4.13;3.63;;;;;;;;;;5031472;28;20132;-71
2022/03/11 01:31:54;;;;;;;6.07;4.25;;;;;;;;;;5033216;28;20569;-69
2022/03/11 01:34:21;;;;;;;6.63;4.13;;;;;;;;;;5038278;28;20041;-68
2022/03/11 01:36:49;;;;;;;6.22;3.45;;;;;;;;;;5035539;28;20132;-70
2022/03/11 01:39:16;;;;;;;5.97;4.50;;;;;;;;;;5029415;28;20037;-71
2022/03/11 01:41:43;;;;;;;10.75;4.05;;;;;;;;;;5030665;28;20152;-71
2022/03/11 01:44:11;;;;;;;11.38;5.25;;;;;;;;;;5030666;28;20080;-69
2022/03/11 01:46:38;;;;;;;8.10;4.68;;;;;;;;;;5030751;28;20136;-70
2022/03/11 01:49:07;;;;;;;5.53;3.88;;;;;;;;;;5031162;28;20124;-70
2022/03/11 01:51:37;;;;;;;8.07;5.05;;;;;;;;;;5031191;28;20047;-68
2022/03/11 01:54:05;;;;;;;6.40;4.20;;;;;;;;;;5012533;28;20125;-70
2022/03/11 01:56:33;;;;;;;6.10;3.75;;;;;;;;;;5029741;28;20053;-71
2022/03/11 01:59:01;;;;;;;7.82;5.13;;;;;;;;;;5013006;28;20072;-71
2022/03/11 02:01:28;;;;;;;7.13;4.53;;;;;;;;;;5030344;28;20125;-71
2022/03/11 02:03:57;;;;;;;6.35;4.00;;;;;;;;;;4995388;28;20491;-68
2022/03/11 02:06:26;;;;;;;8.48;4.15;;;;;;;;;;5029217;28;20045;-69
2022/03/11 02:08:54;;;;;;;6.18;4.38;;;;;;;;;;5030240;28;20049;-71
2022/03/11 02:11:22;;;;;;;7.15;4.15;;;;;;;;;;5030000;28;20072;-70
2022/03/11 02:13:50;;;;;;;5.72;4.47;;;;;;;;;;5029366;28;20121;-71
2022/03/11 02:16:28;;;;;;;5.85;4.38;;;;;;;;;;5029042;28;20041;-70
2022/03/11 02:18:56;;;;;;;7.60;4.82;;;;;;;;;;5030187;28;20499;-70
2022/03/11 02:21:26;;;;;;;5.60;4.40;;;;;;;;;;5029605;28;20084;-70
2022/03/11 02:23:55;;;;;;;6.40;4.85;;;;;;;;;;5012456;28;20060;-70
2022/03/11 02:26:23;;;;;;;6.65;4.55;;;;;;;;;;5028823;28;20443;-71
2022/03/11 02:28:52;;;;;;;5.10;4.20;;;;;;;;;;5012608;28;20103;-68
2022/03/11 02:31:20;;;;;;;7.90;4.93;;;;;;;;;;5030132;28;20037;-68
2022/03/11 02:33:48;;;;;;;9.52;4.80;;;;;;;;;;5011941;28;20395;-69
2022/03/11 02:36:15;;;;;;;5.45;3.97;;;;;;;;;;5027427;28;20124;-69
2022/03/11 02:38:42;;;;;;;13.65;4.88;;;;;;;;;;5027277;28;20856;-71
2022/03/11 02:41:10;;;;;;;7.65;4.57;;;;;;;;;;5029356;28;20103;-68
2022/03/11 02:43:38;;;;;;;7.65;4.95;;;;;;;;;;5029703;28;20056;-71
2022/03/11 02:46:05;;;;;;;7.55;4.47;;;;;;;;;;5011248;28;20051;-71
2022/03/11 02:48:32;;;;;;;5.80;4.40;;;;;;;;;;5029257;28;20092;-69
2022/03/11 02:51:00;;;;;;;7.40;4.68;;;;;;;;;;5012254;28;20095;-69
2022/03/11 02:53:27;;;;;;;11.02;5.07;;;;;;;;;;5012010;28;20399;-71
2022/03/11 02:55:55;;;;;;;8.73;5.18;;;;;;;;;;5011294;28;20479;-69
2022/03/11 02:58:23;;;;;;;8.45;5.63;;;;;;;;;;5030023;28;20411;-71
2022/03/11 03:00:51;;;;;;;6.95;4.97;;;;;;;;;;5029890;28;20045;-68
2022/03/11 03:03:18;;;;;;;7.82;5.32;;;;;;;;;;5029736;28;20060;-71
2022/03/11 03:05:46;;;;;;;6.97;4.68;;;;;;;;;;5028732;28;20478;-70
2022/03/11 03:08:13;;;;;;;8.30;5.55;;;;;;;;;;5029513;28;20745;-69
2022/03/11 03:10:41;;;;;;;5.63;4.68;;;;;;;;;;5029421;28;20048;-71
2022/03/11 03:13:08;;;;;;;10.32;5.00;;;;;;;;;;5029344;28;20125;-71
2022/03/11 03:15:36;;;;;;;8.07;5.22;;;;;;;;;;5010693;28;20041;-71
2022/03/11 03:18:04;;;;;;;7.15;4.90;;;;;;;;;;5029494;28;20061;-68
2022/03/11 03:20:31;;;;;;;9.85;5.93;;;;;;;;;;5048915;28;20065;-71
2022/03/11 03:22:58;;;;;;;9.40;5.60;;;;;;;;;;5049141;28;20037;-70
2022/03/11 03:25:26;;;;;;;9.57;5.88;;;;;;;;;;5030157;28;20094;-71
2022/03/11 03:27:53;;;;;;;7.18;5.28;;;;;;;;;;5049014;28;20123;-71
2022/03/11 03:30:21;;;;;;;9.52;6.22;;;;;;;;;;5048516;28;20045;-68
2022/03/11 03:32:49;;;;;;;9.65;6.22;;;;;;;;;;5031310;28;20072;-69
2022/03/11 03:35:16;;;;;;;6.72;5.63;;;;;;;;;;5048205;28;20037;-70
2022/03/11 03:37:43;;;;;;;8.25;5.75;;;;;;;;;;5031109;28;20072;-71
2022/03/11 03:40:13;;;;;;;8.65;5.88;;;;;;;;;;5030948;28;20076;-71
2022/03/11 03:42:45;;;;;;;8.00;6.03;;;;;;;;;;5048346;28;20056;-71
2022/03/11 03:45:40;;;;;;;7.25;5.25;;;;;;;;;;5062376;22;20049;31
2022/03/11 03:48:07;;;;;;;7.63;4.93;;;;;;;;;;5026873;28;20049;-77
2022/03/11 03:50:34;;;;;;;8.23;6.10;;;;;;;;;;5030307;28;20073;-77
2022/03/11 03:53:02;;;;;;;8.43;5.45;;;;;;;;;;5017337;28;20041;-77
2022/03/11 03:55:29;;;;;;;10.40;6.40;;;;;;;;;;5050197;28;20047;-77
2022/03/11 03:57:56;;;;;;;8.68;6.18;;;;;;;;;;5050432;28;20041;-77
2022/03/11 04:00:24;;;;;;;11.77;6.60;;;;;;;;;;5050444;28;20037;-76
2022/03/11 04:02:51;;;;;;;8.05;5.70;;;;;;;;;;5032831;28;20045;-77
2022/03/11 04:05:19;;;;;;;10.98;6.70;;;;;;;;;;5050074;28;20042;-77
2022/03/11 04:07:47;;;;;;;8.10;5.50;;;;;;;;;;5050536;28;20064;-77
2022/03/11 04:10:15;;;;;;;9.30;6.30;;;;;;;;;;5050270;28;20051;-78
2022/03/11 04:12:42;;;;;;;9.82;6.18;;;;;;;;;;5050221;28;20044;-77
2022/03/11 04:15:10;;;;;;;15.48;6.78;;;;;;;;;;5050026;28;20053;-78
2022/03/11 04:17:37;;;;;;;10.70;6.53;;;;;;;;;;5057417;28;20037;-77
2022/03/11 04:20:05;;;;;;;6.65;5.75;;;;;;;;;;5070818;28;20029;-78
2022/03/11 04:22:33;;;;;;;26.33;6.40;;;;;;;;;;5054687;28;20057;-77
2022/03/11 04:25:00;;;;;;;11.90;6.55;;;;;;;;;;5053070;28;20044;-77
2022/03/11 04:27:27;;;;;;;9.68;6.35;;;;;;;;;;5050583;28;20066;-77
2022/03/11 04:29:55;;;;;;;8.75;6.20;;;;;;;;;;5050775;28;20048;-77
2022/03/11 04:32:23;;;;;;;9.82;6.93;;;;;;;;;;5050003;28;20037;-78
2022/03/11 04:34:50;;;;;;;9.98;7.55;;;;;;;;;;5049926;28;20229;-78
2022/03/11 04:37:17;;;;;;;11.43;7.68;;;;;;;;;;5050317;28;20039;-78
2022/03/11 04:39:44;;;;;;;10.13;6.85;;;;;;;;;;5049971;28;20048;-78
2022/03/11 04:42:12;;;;;;;11.48;7.55;;;;;;;;;;5050161;28;20045;-78
2022/03/11 04:44:39;;;;;;;10.23;6.68;;;;;;;;;;5049881;28;20048;-78
2022/03/11 04:47:06;;;;;;;10.30;7.15;;;;;;;;;;5050143;28;20049;-77
2022/03/11 04:49:34;;;;;;;10.35;6.72;;;;;;;;;;5049683;28;20051;-77
2022/03/11 04:52:01;;;;;;;11.35;6.53;;;;;;;;;;5032289;28;20041;-77
2022/03/11 04:54:28;;;;;;;10.13;6.70;;;;;;;;;;5048416;28;20040;-78
2022/03/11 04:56:56;;;;;;;10.18;6.47;;;;;;;;;;5027801;28;20045;-78
2022/03/11 04:59:23;;;;;;;11.25;6.55;;;;;;;;;;5031965;28;20842;-77
2022/03/11 05:01:51;;;;;;;11.85;7.20;;;;;;;;;;5030015;28;20053;-78
2022/03/11 05:04:18;;;;;;;11.40;6.40;;;;;;;;;;5033463;28;20049;-77
2022/03/11 05:06:45;;;;;;;9.43;6.57;;;;;;;;;;5033375;28;20042;-77
2022/03/11 05:09:13;;;;;;;8.63;6.28;;;;;;;;;;5033611;28;20041;-78
2022/03/11 05:11:41;;;;;;;12.25;7.03;;;;;;;;;;5033693;28;20052;-78
2022/03/11 05:14:08;;;;;;;6.43;5.03;;;;;;;;;;5033481;28;20049;-77
2022/03/11 05:16:35;;;;;;;8.18;6.03;;;;;;;;;;5015649;28;20045;-78
2022/03/11 05:19:03;;;;;;;16.02;7.00;;;;;;;;;;5033360;28;20542;-78
2022/03/11 05:21:30;;;;;;;10.05;6.07;;;;;;;;;;5033347;28;20132;-77
2022/03/11 05:23:58;;;;;;;12.35;8.77;;;;;;;;;;5035525;28;20045;-78
2022/03/11 05:26:25;;;;;;;11.70;7.70;;;;;;;;;;5034648;28;20643;-77
2022/03/11 05:28:53;;;;;;;14.07;9.45;;;;;;;;;;5033034;28;20038;-77
2022/03/11 05:31:21;;;;;;;13.43;8.23;;;;;;;;;;5035539;28;20512;-78
2022/03/11 05:33:49;;;;;;;8.90;6.20;;;;;;;;;;5047446;28;20033;-77
2022/03/11 05:36:17;;;;;;;10.70;7.30;;;;;;;;;;5022961;28;20041;-76
2022/03/11 05:38:44;;;;;;;11.73;7.68;;;;;;;;;;5015521;28;20038;-78
2022/03/11 05:41:12;;;;;;;12.63;7.93;;;;;;;;;;5034737;28;20091;-76
2022/03/11 05:43:40;;;;;;;11.48;8.18;;;;;;;;;;5036575;28;20047;-78
2022/03/11 05:46:07;;;;;;;13.35;8.43;;;;;;;;;;5037477;28;20502;-78
2022/03/11 05:48:35;;;;;;;12.15;9.23;;;;;;;;;;5036022;28;20296;-79
2022/03/11 05:51:07;;;;;;;12.70;8.55;;;;;;;;;;5032180;28;20441;-79
2022/03/11 05:53:34;;;;;;;13.38;8.93;;;;;;;;;;5016568;28;20037;-79
2022/03/11 05:56:02;;;;;;;12.65;8.35;;;;;;;;;;5015194;28;20039;-78
2022/03/11 05:58:29;;;;;;;12.52;9.65;;;;;;;;;;5032734;28;20041;-78
2022/03/11 06:00:56;;;;;;;10.15;7.53;;;;;;;;;;5034328;28;20051;-78
2022/03/11 06:03:24;;;;;;;11.40;9.00;;;;;;;;;;5032675;28;20052;-78
2022/03/11 06:05:52;;;;;;;14.00;9.88;;;;;;;;;;5031619;28;20045;-77
2022/03/11 06:08:21;;;;;;;13.93;9.38;;;;;;;;;;5033316;28;20049;-78
2022/03/11 06:10:49;;;;;;;13.85;9.30;;;;;;;;;;5014887;28;20065;-79
2022/03/11 06:13:16;;;;;;;15.70;9.60;;;;;;;;;;5029975;28;20037;-78
2022/03/11 06:15:45;;;;;;;38.85;10.35;;;;;;;;;;5024198;28;20037;-78
2022/03/11 06:18:15;;;;;;;12.60;9.43;;;;;;;;;;5031130;28;20498;-78
2022/03/11 06:20:43;;;;;;;14.65;9.30;;;;;;;;;;5011279;28;20747;-78
2022/03/11 06:23:10;;;;;;;14.07;9.68;;;;;;;;;;5018883;28;20418;-78
2022/03/11 06:25:38;;;;;;;16.55;10.88;;;;;;;;;;5028473;28;20038;-78
2022/03/11 06:28:05;;;;;;;18.63;12.30;;;;;;;;;;5033728;28;20781;-78
2022/03/11 06:30:32;;;;;;;19.20;12.07;;;;;;;;;;5037247;28;20406;-78
2022/03/11 06:33:00;;;;;;;22.80;12.02;;;;;;;;;;5046561;28;20384;-77
2022/03/11 06:35:30;;;;;;;17.38;11.43;;;;;;;;;;5037237;28;20129;-78
2022/03/11 06:37:57;;;;;;;17.15;11.20;;;;;;;;;;5029756;28;20037;-77
2022/03/11 06:40:25;;;;;;;20.27;12.32;;;;;;;;;;5030435;28;20044;-78
2022/03/11 06:42:54;;;;;;;16.55;10.38;;;;;;;;;;5030541;28;20048;-78
2022/03/11 06:45:21;;;;;;;16.58;10.48;;;;;;;;;;5009155;28;20517;-79
2022/03/11 06:47:49;;;;;;;19.88;11.90;;;;;;;;;;5013128;28;20528;-76
2022/03/11 06:50:18;;;;;;;22.85;11.90;;;;;;;;;;5031589;28;20505;-80
2022/03/11 06:52:45;;;;;;;17.48;10.05;;;;;;;;;;5028400;28;20049;-78
2022/03/11 06:55:15;;;;;;;18.38;9.57;;;;;;;;;;5027584;28;20438;-76
2022/03/11 06:57:44;;;;;;;10.60;7.00;;;;;;;;;;5029779;28;20140;-77
2022/03/11 07:00:30;;;;;;;15.77;8.20;;;;;;;;;;5028477;28;20022;-77
2022/03/11 07:02:58;;;;;;;13.07;8.90;;;;;;;;;;5028126;28;20037;-80
2022/03/11 07:05:26;;;;;;;15.15;7.10;;;;;;;;;;5030259;28;20048;-77
2022/03/11 07:07:53;;;;;;;7.55;5.88;;;;;;;;;;5030689;28;20049;-78
2022/03/11 07:10:21;;;;;;;8.65;5.50;;;;;;;;;;5029382;28;20068;-78
2022/03/11 07:12:51;;;;;;;8.45;6.07;;;;;;;;;;5032320;28;20037;-80
2022/03/11 07:15:19;;;;;;;6.47;4.78;;;;;;;;;;5008615;28;20478;-78
2022/03/11 07:17:49;;;;;;;8.93;5.82;;;;;;;;;;5048999;28;20052;-78
2022/03/11 07:20:19;;;;;;;5.30;4.15;;;;;;;;;;5027774;28;20038;-78
2022/03/11 07:22:48;;;;;;;7.95;5.60;;;;;;;;;;5033077;28;20045;-76
2022/03/11 07:25:17;;;;;;;10.35;5.45;;;;;;;;;;5031200;28;20052;-77
2022/03/11 07:28:03;;;;;;;7.15;4.80;;;;;;;;;;5028829;28;20021;-77
2022/03/11 07:30:30;;;;;;;6.93;5.38;;;;;;;;;;5030922;28;20049;-79
2022/03/11 07:33:03;;;;;;;7.50;4.68;;;;;;;;;;5030330;28;20085;-77
2022/03/11 07:35:33;;;;;;;5.55;4.43;;;;;;;;;;5014658;28;20046;-78
2022/03/11 07:38:02;;;;;;;9.48;4.57;;;;;;;;;;5032947;23;20095;-70
2022/03/11 07:40:29;;;;;;;7.15;4.97;;;;;;;;;;5053618;28;20039;-69
2022/03/11 07:42:56;;;;;;;6.13;4.60;;;;;;;;;;5047207;28;20140;-69
2022/03/11 07:45:24;;;;;;;7.00;4.63;;;;;;;;;;5016492;28;20072;-70
2022/03/11 07:47:51;;;;;;;6.82;5.13;;;;;;;;;;5036011;28;20049;-69
2022/03/11 07:50:19;;;;;;;5.50;4.35;;;;;;;;;;5033434;28;20056;-71
2022/03/11 07:52:46;;;;;;;7.25;4.47;;;;;;;;;;5040919;28;20558;-72
2022/03/11 07:55:14;;;;;;;6.60;4.90;;;;;;;;;;5040425;28;20070;-72
2022/03/11 07:57:58;;;;;;;6.07;4.45;;;;;;;;;;5045149;28;20017;-70
2022/03/11 08:00:26;;;;;;;5.30;4.30;;;;;;;;;;5023879;28;20037;-69
2022/03/11 08:02:53;;;;;;;10.30;4.53;;;;;;;;;;5038483;28;20123;-70
2022/03/11 08:05:22;;;;;;;5.60;4.90;;;;;;;;;;5045358;28;20128;-71
2022/03/11 08:07:50;;;;;;;6.25;4.40;;;;;;;;;;5047604;28;20731;-70
2022/03/11 08:10:17;;;;;;;6.47;4.35;;;;;;;;;;5047380;28;20132;-69
2022/03/11 08:13:06;;;;;;;6.50;4.60;;;;;;;;;;5024202;28;20033;-70
2022/03/11 08:15:39;;;;;;;7.43;4.93;;;;;;;;;;5041293;28;20056;-70
2022/03/11 08:18:06;;;;;;;6.13;4.80;;;;;;;;;;5046187;28;20037;-70
2022/03/11 08:20:34;;;;;;;4.28;3.78;;;;;;;;;;5045060;28;20037;-72
2022/03/11 08:23:01;;;;;;;10.30;4.03;;;;;;;;;;5027562;28;20158;-73
2022/03/11 08:25:29;;;;;;;5.90;4.57;;;;;;;;;;5050202;28;20056;-71
2022/03/11 08:28:14;;;;;;;10.43;4.32;;;;;;;;;;5045567;28;20542;-72
2022/03/11 08:30:41;;;;;;;6.60;4.00;;;;;;;;;;5047137;28;20424;-71
2022/03/11 08:33:10;;;;;;;6.20;4.32;;;;;;;;;;5052402;28;20043;-70
2022/03/11 08:35:59;;;;;;;7.93;4.18;;;;;;;;;;5059923;28;20043;-71
2022/03/11 08:38:42;;;;;;;4.85;4.18;;;;;;;;;;5045399;28;20122;-71
2022/03/11 08:41:10;;;;;;;5.57;4.25;;;;;;;;;;5049196;28;20040;-70
2022/03/11 08:43:55;;;;;;;4.88;4.38;;;;;;;;;;5048052;28;20031;-71
2022/03/11 08:46:22;;;;;;;4.43;4.03;;;;;;;;;;5060341;28;20040;-71
2022/03/11 08:48:50;;;;;;;4.47;4.07;;;;;;;;;;5068608;28;20055;-71
2022/03/11 08:51:35;;;;;;;3.70;3.40;;;;;;;;;;5034844;28;20564;-70
2022/03/11 08:54:03;;;;;;;6.32;4.50;;;;;;;;;;5053415;28;20465;-71
2022/03/11 08:56:48;;;;;;;18.42;3.95;;;;;;;;;;5056576;28;20486;-71
2022/03/11 08:59:15;;;;;;;5.03;3.90;;;;;;;;;;5056383;28;20029;-71
2022/03/11 09:02:01;;;;;;;4.78;4.38;;;;;;;;;;5050006;28;20020;-71
2022/03/11 09:04:30;;;;;;;5.95;3.50;;;;;;;;;;5062465;28;20040;-71
2022/03/11 09:06:57;;;;;;;4.63;4.22;;;;;;;;;;5070108;28;20045;-69
2022/03/11 09:09:32;;;;;;;4.35;3.85;;;;;;;;;;5062007;28;20048;-70
2022/03/11 09:12:02;;;;;;;5.05;4.43;;;;;;;;;;5067285;28;20036;-70
2022/03/11 09:14:29;;;;;;;6.93;3.72;;;;;;;;;;5057481;28;20053;-71
2022/03/11 09:16:57;;;;;;;4.47;3.65;;;;;;;;;;5035090;28;20140;-70
2022/03/11 09:19:24;;;;;;;4.28;3.88;;;;;;;;;;5057785;28;20041;-69
2022/03/11 09:21:52;;;;;;;4.22;3.20;;;;;;;;;;5073052;28;20044;-68
2022/03/11 09:24:19;;;;;;;4.95;3.70;;;;;;;;;;5063826;28;20040;-69
2022/03/11 09:26:53;;;;;;;5.43;3.78;;;;;;;;;;5064705;28;20127;-70
2022/03/11 09:29:23;;;;;;;4.07;3.78;;;;;;;;;;5052536;28;20041;-70
2022/03/11 09:31:51;;;;;;;7.38;3.95;;;;;;;;;;5045667;28;20072;-69
2022/03/11 09:34:18;;;;;;;4.63;3.80;;;;;;;;;;5038713;28;20415;-70
2022/03/11 09:36:48;;;;;;;4.93;3.15;;;;;;;;;;5052986;28;20052;-70
2022/03/11 09:39:16;;;;;;;5.45;3.60;;;;;;;;;;5035827;28;20049;-70
2022/03/11 09:41:44;;;;;;;4.35;3.95;;;;;;;;;;5054090;28;20067;-69
2022/03/11 09:44:13;;;;;;;3.28;3.05;;;;;;;;;;5053238;28;20135;-73
2022/03/11 09:46:40;;;;;;;3.90;3.60;;;;;;;;;;5129445;22;20487;-73
2022/03/11 09:49:08;;;;;;;3.70;3.40;;;;;;;;;;5052945;28;20045;-74
2022/03/11 09:51:36;;;;;;;4.55;3.70;;;;;;;;;;5033593;28;20116;-73
2022/03/11 09:54:04;;;;;;;5.38;3.60;;;;;;;;;;5032281;28;20504;-75
2022/03/11 09:56:34;;;;;;;7.28;3.50;;;;;;;;;;5069978;28;20052;-71
2022/03/11 09:59:02;;;;;;;3.50;3.20;;;;;;;;;;5033156;28;20076;-73
2022/03/11 10:01:29;;;;;;;4.03;3.60;;;;;;;;;;5041703;28;20048;-71
2022/03/11 10:03:57;;;;;;;4.60;3.85;;;;;;;;;;5051367;28;20095;-72
2022/03/11 10:06:36;;;;;;;4.43;4.03;;;;;;;;;;5050044;28;20140;-72
2022/03/11 10:09:04;;;;;;;3.60;3.30;;;;;;;;;;5064695;28;20477;-72
2022/03/11 10:11:32;;;;;;;4.63;3.38;;;;;;;;;;5069306;28;20040;-70
2022/03/11 10:14:06;;;;;;;6.13;4.30;;;;;;;;;;5050633;28;20041;-70
2022/03/11 10:16:34;;;;;;;6.50;3.70;;;;;;;;;;5047985;28;20072;-74
2022/03/11 10:19:04;;;;;;;7.55;4.45;;;;;;;;;;5050898;28;20041;-72
2022/03/11 10:21:33;;;;;;;13.75;4.07;;;;;;;;;;5052416;28;20132;-71
2022/03/11 10:24:01;;;;;;;4.40;3.63;;;;;;;;;;5049234;28;20037;-73
2022/03/11 10:26:35;;;;;;;3.15;2.78;;;;;;;;;;5057759;28;20045;-74
2022/03/11 10:29:15;;;;;;;4.10;3.70;;;;;;;;;;5046760;28;20048;-71
2022/03/11 10:31:46;;;;;;;4.07;3.67;;;;;;;;;;5034482;28;20048;-69
2022/03/11 10:34:19;;;;;;;6.13;3.80;;;;;;;;;;5051299;28;20163;-73
2022/03/11 10:37:09;;;;;;;3.22;2.95;;;;;;;;;;5069645;28;20044;-73
2022/03/11 10:39:38;;;;;;;3.72;3.10;;;;;;;;;;5048842;28;20067;-73
2022/03/11 10:42:22;;;;;;;4.28;3.70;;;;;;;;;;5050862;28;20478;-72
2022/03/11 10:44:59;;;;;;;4.75;3.97;;;;;;;;;;5057378;28;20037;-71
2022/03/11 10:47:34;;;;;;;5.57;3.03;;;;;;;;;;5062894;28;20401;-71
2022/03/11 10:50:04;;;;;;;3.88;3.47;;;;;;;;;;5062880;28;20292;-74
2022/03/11 10:52:31;;;;;;;6.00;3.92;;;;;;;;;;5049789;28;20124;-71
2022/03/11 10:54:59;;;;;;;8.13;3.03;;;;;;;;;;5052386;28;20037;-72
2022/03/11 10:57:38;;;;;;;3.63;3.22;;;;;;;;;;5042704;28;20043;-72
2022/03/11 11:00:18;;;;;;;9.50;3.75;;;;;;;;;;5005192;28;20057;-71
2022/03/11 11:02:45;;;;;;;5.03;3.25;;;;;;;;;;5060637;28;20032;-73
2022/03/11 11:05:13;;;;;;;3.50;3.15;;;;;;;;;;5060074;28;20523;-71
2022/03/11 11:07:41;;;;;;;3.67;3.17;;;;;;;;;;5058615;28;20098;-71
2022/03/11 11:10:12;;;;;;;2.88;2.63;;;;;;;;;;5060114;28;20040;-72
2022/03/11 11:12:40;;;;;;;5.78;2.88;;;;;;;;;;5062738;28;20047;-72
2022/03/11 11:15:09;;;;;;;3.88;3.05;;;;;;;;;;5061653;28;20047;-70
2022/03/11 11:17:37;;;;;;;4.32;2.63;;;;;;;;;;5060693;28;20502;-71
2022/03/11 11:20:05;;;;;;;3.78;2.88;;;;;;;;;;5045024;28;20068;-70
2022/03/11 11:22:35;;;;;;;2.58;2.28;;;;;;;;;;5057465;28;20045;-72
2022/03/11 11:25:03;;;;;;;2.75;2.30;;;;;;;;;;5054124;28;20083;-74
2022/03/11 11:27:33;;;;;;;2.72;2.28;;;;;;;;;;5057247;28;20045;-74
2022/03/11 11:30:01;;;;;;;2.78;2.53;;;;;;;;;;5056346;28;20057;-72
2022/03/11 11:32:29;;;;;;;3.15;2.78;;;;;;;;;;5033762;28;20094;-71
2022/03/11 11:35:17;;;;;;;4.07;2.88;;;;;;;;;;5049498;28;20053;-72
2022/03/11 11:37:44;;;;;;;4.68;2.17;;;;;;;;;;5048288;28;20068;-72
2022/03/11 11:40:33;;;;;;;3.08;2.80;;;;;;;;;;5046119;28;20509;-70
2022/03/11 11:43:13;;;;;;;3.08;2.70;;;;;;;;;;5048157;28;20048;-71
2022/03/11 11:45:44;;;;;;;2.50;2.30;;;;;;;;;;5046838;28;20507;-75
2022/03/11 11:48:32;;;;;;;3.00;2.40;;;;;;;;;;5029573;28;20461;-70
2022/03/11 11:51:00;;;;;;;4.90;2.70;;;;;;;;;;5054083;28;20044;-72
2022/03/11 11:53:32;;;;;;;8.20;2.20;;;;;;;;;;5052556;28;20037;-74
2022/03/11 11:55:59;;;;;;;;;;;;;;;;;;5063831;28;20044;-73
2022/03/11 11:58:30;;;;;;;2.25;2.05;;;;;;;;;;5049169;28;19999;-73
2022/03/11 12:00:58;;;;;;;2.83;2.47;;;;;;;;;;5047709;28;20132;-72
2022/03/11 12:04:01;;;;;;;2.42;2.20;;;;;;;;;;5041547;28;20044;-73
2022/03/11 12:06:47;;;;;;;2.40;1.92;;;;;;;;;;4975120;28;20396;-74
2022/03/11 12:09:34;;;;;;;2.28;1.80;;;;;;;;;;5044364;28;20063;-72
2022/03/11 12:12:02;;;;;;;3.33;2.00;;;;;;;;;;5047669;28;20102;-73
2022/03/11 12:14:29;;;;;;;2.50;2.10;;;;;;;;;;5062190;28;20043;-72
2022/03/11 12:17:05;;;;;;;3.72;2.10;;;;;;;;;;5058115;28;20041;-74
2022/03/11 12:19:40;;;;;;;6.47;2.50;;;;;;;;;;5050520;28;20573;-72
2022/03/11 12:22:29;;;;;;;8.40;1.90;;;;;;;;;;5049407;28;20119;-73
2022/03/11 12:25:00;;;;;;;6.38;2.50;;;;;;;;;;5046901;28;20049;-71
2022/03/11 12:27:46;;;;;;;9.23;2.15;;;;;;;;;;5030070;28;20055;-72
2022/03/11 12:30:14;;;;;;;2.40;2.00;;;;;;;;;;5048409;28;20041;-73
2022/03/11 12:32:42;;;;;;;2.83;2.25;;;;;;;;;;5032043;28;20680;-74
2022/03/11 12:35:11;;;;;;;7.63;2.05;;;;;;;;;;5030050;28;20043;-71
2022/03/11 12:37:40;;;;;;;2.45;2.20;;;;;;;;;;5042311;28;20044;-71
2022/03/11 12:40:09;;;;;;;5.05;2.20;;;;;;;;;;5066897;28;20037;-73
2022/03/11 12:42:41;;;;;;;2.55;1.70;;;;;;;;;;5049725;28;20489;-72
2022/03/11 12:45:08;;;;;;;2.20;1.83;;;;;;;;;;5048744;28;20040;-73
2022/03/11 12:47:40;;;;;;;1.65;1.50;;;;;;;;;;5067663;28;20052;-74
2022/03/11 12:50:09;;;;;;;2.08;1.92;;;;;;;;;;5044727;28;20057;-73
2022/03/11 12:52:37;;;;;;;2.17;1.80;;;;;;;;;;5066933;28;20041;-73
2022/03/11 12:55:19;;;;;;;2.38;2.03;;;;;;;;;;5066491;28;20296;-74
2022/03/11 12:57:50;;;;;;;3.45;1.95;;;;;;;;;;5067672;28;20068;-75
2022/03/11 13:00:19;;;;;;;2.25;2.10;;;;;;;;;;5033164;28;20617;-72
2022/03/11 13:02:48;;;;;;;1.90;1.80;;;;;;;;;;5049189;28;20044;-72
2022/03/11 13:05:23;;;;;;;3.60;1.80;;;;;;;;;;5031895;28;20430;-71
2022/03/11 13:07:51;;;;;;;2.28;1.75;;;;;;;;;;5057927;28;20048;-72
2022/03/11 13:10:19;;;;;;;1.85;1.73;;;;;;;;;;5059382;28;20037;-72
2022/03/11 13:12:47;;;;;;;3.10;1.95;;;;;;;;;;5040342;28;20073;-72
2022/03/11 13:15:16;;;;;;;3.00;1.83;;;;;;;;;;5045270;28;20068;-74
2022/03/11 13:17:44;;;;;;;3.88;2.28;;;;;;;;;;5052346;28;20043;-74
2022/03/11 13:20:31;;;;;;;2.00;1.90;;;;;;;;;;5050401;28;20101;-73
2022/03/11 13:22:59;;;;;;;1.92;1.55;;;;;;;;;;5047469;28;20192;-74
2022/03/11 13:25:27;;;;;;;2.13;1.92;;;;;;;;;;5055370;28;20529;-72
2022/03/11 13:27:57;;;;;;;2.40;2.20;;;;;;;;;;5061914;28;20045;-72
2022/03/11 13:30:29;;;;;;;4.32;2.35;;;;;;;;;;5057902;28;20501;-76
2022/03/11 13:32:56;;;;;;;1.80;1.70;;;;;;;;;;5056923;28;20032;-73
2022/03/11 13:35:27;;;;;;;2.35;1.58;;;;;;;;;;5061910;28;20498;-73
2022/03/11 13:37:55;;;;;;;1.47;1.37;;;;;;;;;;5062233;28;20086;-74
2022/03/11 13:40:38;;;;;;;1.95;1.85;;;;;;;;;;5051931;28;20033;-74
2022/03/11 13:43:06;;;;;;;2.05;1.95;;;;;;;;;;5069401;28;20044;-70
2022/03/11 13:45:36;;;;;;;2.35;2.08;;;;;;;;;;5046032;28;20049;-73
2022/03/11 13:48:07;;;;;;;4.93;2.08;;;;;;;;;;5049604;28;20043;-72
2022/03/11 13:50:36;;;;;;;1.90;1.80;;;;;;;;;;5057750;28;20047;-70
2022/03/11 13:53:04;;;;;;;6.35;2.33;;;;;;;;;;5029723;28;20044;-73
2022/03/11 13:55:33;;;;;;;3.35;1.90;;;;;;;;;;5037581;28;20064;-75
2022/03/11 13:58:19;;;;;;;1.40;1.25;;;;;;;;;;5037860;28;20135;-70
2022/03/11 14:00:46;;;;;;;2.88;2.03;;;;;;;;;;5041152;28;20405;-76
2022/03/11 14:03:14;;;;;;;5.22;2.10;;;;;;;;;;5059643;28;20045;-71
2022/03/11 14:05:43;;;;;;;4.43;2.08;;;;;;;;;;5057737;28;20123;-73
2022/03/11 14:08:13;;;;;;;5.78;1.92;;;;;;;;;;5042032;28;20093;-73
2022/03/11 14:10:45;;;;;;;4.05;1.38;;;;;;;;;;5035333;28;20064;-73
2022/03/11 14:13:20;;;;;;;3.13;2.00;;;;;;;;;;5032164;28;20118;-72
2022/03/11 14:15:50;;;;;;;2.30;1.85;;;;;;;;;;5049057;28;20119;-73
2022/03/11 14:18:22;;;;;;;1.67;1.58;;;;;;;;;;5051882;28;20644;-71
2022/03/11 14:21:09;;;;;;;2.05;1.90;;;;;;;;;;5070387;28;20420;-72
2022/03/11 14:23:37;;;;;;;3.60;2.13;;;;;;;;;;5051543;28;20062;-74
2022/03/11 14:26:04;;;;;;;1.88;1.77;;;;;;;;;;5069084;28;20051;-72
2022/03/11 14:28:32;;;;;;;3.72;2.38;;;;;;;;;;5069982;28;20047;-72
2022/03/11 14:31:00;;;;;;;3.00;2.20;;;;;;;;;;5067690;28;20042;-73
2022/03/11 14:33:30;;;;;;;2.22;1.80;;;;;;;;;;5068995;28;20049;-72
2022/03/11 14:36:00;;;;;;;2.20;1.83;;;;;;;;;;5056596;28;20086;-72
2022/03/11 14:38:28;;;;;;;2.63;2.20;;;;;;;;;;5049180;28;20127;-73
2022/03/11 14:40:58;;;;;;;2.38;2.20;;;;;;;;;;5031671;28;20110;-72
2022/03/11 14:43:25;;;;;;;2.95;2.42;;;;;;;;;;5031859;28;20041;-73
2022/03/11 14:45:59;;;;;;;2.45;2.20;;;;;;;;;;5048567;28;20041;-72
2022/03/11 14:48:34;;;;;;;11.10;2.53;;;;;;;;;;5016828;28;20506;-74
2022/03/11 14:51:02;;;;;;;2.67;1.92;;;;;;;;;;5049750;28;20037;-74
2022/03/11 14:53:29;;;;;;;2.55;2.17;;;;;;;;;;5032277;28;20068;-73
2022/03/11 14:55:57;;;;;;;2.80;2.60;;;;;;;;;;5049364;28;20041;-73